createdAt,value
2019-04-20T15:37:37.333Z,27.40
2019-04-20T15:40:07.215Z,30.60
2019-04-20T15:42:49.438Z,31.70
2019-04-20T15:45:09.296Z,32.20
2019-04-20T15:47:38.516Z,33.00
2019-04-20T15:50:07.862Z,32.90
2019-04-20T15:52:42.514Z,32.60
2019-04-20T15:55:14.356Z,32.30
2019-04-20T15:57:38.666Z,32.40
2019-04-20T16:00:08.753Z,32.60
2019-04-20T16:02:49.493Z,32.90
2019-04-20T16:05:38.589Z,32.40
2019-04-20T16:08:28.218Z,31.70
2019-04-20T16:10:57.528Z,31.30
2019-04-20T16:13:35.095Z,31.50
2019-04-20T16:15:58.087Z,31.30
2019-04-20T16:18:27.357Z,31.40
2019-04-20T16:21:04.749Z,30.80
2019-04-20T16:23:28.206Z,29.90
2019-04-20T16:25:59.623Z,29.00
2019-04-20T16:28:29.758Z,28.00
2019-04-20T16:30:59.368Z,27.00
2019-04-20T16:33:30.514Z,26.00
2019-04-20T16:36:00.655Z,25.60
2019-04-20T16:38:30.585Z,25.10
2019-04-20T16:41:00.116Z,24.50
2019-04-20T16:43:35.657Z,24.20
2019-04-20T16:46:01.259Z,23.90
2019-04-20T16:48:31.625Z,23.70
2019-04-20T16:51:02.850Z,23.60
2019-04-20T16:53:32.934Z,23.30
2019-04-20T16:56:02.865Z,23.00
2019-04-20T16:58:33.499Z,22.80
2019-04-20T17:01:03.484Z,22.70
2019-04-20T17:03:44.510Z,22.60
2019-04-20T17:06:04.433Z,22.30
2019-04-20T17:08:33.568Z,22.20
2019-04-20T17:11:03.482Z,22.20
2019-04-20T17:13:40.480Z,22.10
2019-04-20T17:16:04.131Z,22.10
2019-04-20T17:18:33.976Z,22.00
2019-04-20T17:21:05.938Z,21.90
2019-04-20T17:23:34.998Z,21.90
2019-04-20T17:26:06.041Z,21.80
2019-04-20T17:28:55.554Z,21.80
2019-04-20T17:31:45.188Z,21.80
2019-04-20T17:34:29.837Z,21.60
2019-04-20T17:36:46.377Z,21.60
2019-04-20T17:39:26.102Z,21.60
2019-04-20T17:42:02.962Z,21.50
2019-04-20T17:44:34.374Z,21.40
2019-04-20T17:46:59.070Z,21.30
2019-04-20T17:49:41.223Z,21.20
2019-04-20T17:52:24.129Z,21.20
2019-04-20T17:54:34.044Z,21.10
2019-04-20T17:57:02.982Z,21.10
2019-04-20T17:59:32.398Z,21.00
2019-04-20T18:02:17.541Z,21.00
2019-04-20T18:05:22.318Z,20.90
2019-04-20T18:07:58.756Z,20.80
2019-04-20T18:10:11.463Z,20.70
2019-04-20T18:12:32.822Z,20.60
2019-04-20T18:15:14.870Z,20.50
2019-04-20T18:17:51.606Z,20.30
2019-04-20T18:20:23.051Z,20.30
2019-04-20T18:22:56.762Z,20.20
2019-04-20T18:25:53.412Z,19.90
2019-04-20T18:28:11.128Z,19.90
2019-04-20T18:30:54.775Z,19.90
2019-04-20T18:33:17.944Z,19.70
2019-04-20T18:35:47.449Z,19.80
2019-04-20T18:38:17.038Z,19.80
2019-04-20T18:40:55.961Z,19.80
2019-04-20T18:43:22.689Z,19.70
2019-04-20T18:46:07.896Z,19.50
2019-04-20T18:51:15.393Z,19.50
2019-04-20T18:53:46.931Z,19.50
2019-04-20T18:56:17.899Z,19.50
2019-04-20T18:58:45.502Z,19.40
2019-04-20T19:01:15.025Z,19.30
2019-04-20T19:03:47.058Z,19.10
2019-04-20T19:06:15.966Z,19.00
2019-04-20T19:08:49.708Z,18.90
2019-04-20T19:11:19.812Z,18.80
2019-04-20T19:13:59.214Z,18.70
2019-04-20T19:16:35.638Z,18.60
2019-04-20T19:19:21.265Z,18.50
2019-04-20T19:21:37.876Z,18.40
2019-04-20T19:24:12.450Z,18.40
2019-04-20T19:26:38.418Z,18.30
2019-04-20T19:29:14.030Z,18.20
2019-04-20T19:31:57.317Z,18.20
2019-04-20T19:34:26.528Z,18.20
2019-04-20T19:36:53.731Z,18.10
2019-04-20T19:39:25.734Z,18.10
2019-04-20T19:41:50.577Z,18.10
2019-04-20T19:44:22.531Z,18.10
2019-04-20T19:47:05.257Z,18.10
2019-04-20T19:49:26.854Z,18.10
2019-04-20T19:52:14.870Z,18.00
2019-04-20T19:54:35.548Z,17.90
2019-04-20T19:57:01.339Z,17.90
2019-04-20T19:59:25.963Z,17.80
2019-04-20T20:01:47.694Z,17.80
2019-04-20T20:07:33.866Z,17.70
2019-04-20T20:10:00.486Z,17.60
2019-04-20T20:12:27.592Z,17.60
2019-04-20T20:14:57.556Z,17.60
2019-04-20T20:17:48.111Z,17.60
2019-04-20T20:20:19.944Z,17.60
2019-04-20T20:22:35.444Z,17.50
2019-04-20T20:24:58.987Z,17.50
2019-04-20T20:27:35.271Z,17.50
2019-04-20T20:30:06.826Z,17.40
2019-04-20T20:32:49.155Z,17.40
2019-04-20T20:35:05.601Z,17.30
2019-04-20T20:37:39.195Z,17.20
2019-04-20T20:40:10.147Z,17.20
2019-04-20T20:42:48.651Z,17.20
2019-04-20T20:45:15.742Z,17.20
2019-04-20T20:47:54.923Z,17.20
2019-04-20T20:50:31.979Z,17.20
2019-04-20T20:52:54.739Z,17.10
2019-04-20T20:55:20.936Z,17.10
2019-04-20T20:57:50.808Z,17.00
2019-04-20T21:00:22.675Z,16.90
2019-04-20T21:02:50.817Z,16.90
2019-04-20T21:05:15.447Z,16.90
2019-04-20T21:07:45.118Z,16.80
2019-04-20T21:10:22.830Z,16.70
2019-04-20T21:12:54.085Z,16.70
2019-04-20T21:15:21.003Z,16.70
2019-04-20T21:18:08.398Z,16.60
2019-04-20T21:20:39.520Z,16.50
2019-04-20T21:23:05.511Z,16.50
2019-04-20T21:25:26.375Z,16.50
2019-04-20T21:27:55.028Z,16.40
2019-04-20T21:30:32.997Z,16.40
2019-04-20T21:32:59.027Z,16.30
2019-04-20T21:35:25.931Z,16.30
2019-04-20T21:38:01.653Z,16.30
2019-04-20T21:40:33.973Z,16.20
2019-04-20T21:43:00.681Z,16.10
2019-04-20T21:45:31.177Z,16.00
2019-04-20T21:48:03.393Z,15.90
2019-04-20T21:50:50.880Z,15.80
2019-04-20T21:53:07.810Z,15.80
2019-04-20T21:55:30.029Z,15.80
2019-04-20T21:58:00.823Z,15.80
2019-04-20T22:00:37.553Z,15.90
2019-04-20T22:03:06.310Z,15.90
2019-04-20T22:05:34.923Z,15.90
2019-04-20T22:08:07.836Z,15.90
2019-04-20T22:10:34.915Z,15.80
2019-04-20T22:13:04.866Z,15.70
2019-04-20T22:15:40.149Z,15.70
2019-04-20T22:18:09.702Z,15.70
2019-04-20T22:20:49.621Z,15.70
2019-04-20T22:23:23.169Z,15.60
2019-04-20T22:25:56.595Z,15.60
2019-04-20T22:28:09.063Z,15.70
2019-04-20T22:30:38.064Z,15.80
2019-04-20T22:33:31.765Z,15.90
2019-04-20T22:36:00.911Z,15.90
2019-04-20T22:38:30.914Z,15.90
2019-04-20T22:41:09.374Z,15.90
2019-04-20T22:43:36.712Z,15.90
2019-04-20T22:46:05.476Z,16.00
2019-04-20T22:48:39.294Z,16.00
2019-04-20T22:51:19.629Z,15.90
2019-04-20T22:53:49.944Z,15.90
2019-04-20T22:56:27.235Z,15.90
2019-04-20T22:58:48.830Z,15.90
2019-04-20T23:01:19.336Z,15.90
2019-04-20T23:03:40.986Z,15.80
2019-04-20T23:06:10.238Z,15.80
2019-04-20T23:08:40.456Z,15.70
2019-04-20T23:11:17.970Z,15.70
2019-04-20T23:13:44.620Z,15.70
2019-04-20T23:16:13.239Z,15.70
2019-04-20T23:18:44.414Z,15.60
2019-04-20T23:21:16.091Z,15.50
2019-04-20T23:23:45.635Z,15.40
2019-04-20T23:26:16.863Z,15.30
2019-04-20T23:28:49.597Z,15.30
2019-04-20T23:31:20.190Z,15.30
2019-04-20T23:33:47.672Z,15.30
2019-04-20T23:36:19.320Z,15.40
2019-04-20T23:38:49.057Z,15.40
2019-04-20T23:41:19.662Z,15.40
2019-04-20T23:44:03.853Z,15.40
2019-04-20T23:46:28.301Z,15.40
2019-04-20T23:49:22.114Z,15.40
2019-04-20T23:52:05.450Z,15.40
2019-04-20T23:54:22.117Z,15.40
2019-04-20T23:56:45.902Z,15.30
2019-04-20T23:59:14.842Z,15.30
